Terminal Aerodrome Forecast
Issued by NWS

Home | Current Version | Previous Version | Text Only | Print | Product List | Glossary On
Versions: 1 2 3 4 5 6 7 8 9 10 11 12 13 14 15 16 17 18 19
495
FTUS43 KAPX 302208 AAA
TAFMBL
TAF AMD
KMBL 302208Z 3022/3118 33009KT P6SM SKC
     FM310100 VRB04KT P6SM SKC
     FM310400 09004KT P6SM SKC
     FM311500 VRB04KT P6SM SCT250
      AMD LTD TO CLD VIS AND WIND=

USA.gov is the U.S. government's official web portal to all federal, state and local government web resources and services.